createdAt,value
2018-02-15T00:00:59.980Z,18.55
2018-02-15T00:02:03.611Z,19.30
2018-02-15T00:03:07.362Z,18.80
2018-02-15T00:04:11.041Z,18.20
2018-02-15T00:05:14.857Z,18.83
2018-02-15T00:06:18.526Z,17.58
2018-02-15T00:07:22.044Z,20.30
2018-02-15T00:08:26.454Z,17.83
2018-02-15T00:09:29.995Z,18.83
2018-02-15T00:10:33.429Z,18.35
2018-02-15T00:11:36.916Z,17.98
2018-02-15T00:12:40.514Z,18.70
2018-02-15T00:13:44.097Z,19.60
2018-02-15T00:14:47.928Z,19.67
2018-02-15T00:15:51.590Z,17.55
2018-02-15T00:16:55.188Z,18.02
2018-02-15T00:17:58.873Z,18.87
2018-02-15T00:19:02.363Z,17.40
2018-02-15T00:20:05.960Z,17.25
2018-02-15T00:21:09.548Z,16.52
2018-02-15T00:22:12.900Z,16.42
2018-02-15T00:23:16.628Z,16.95
2018-02-15T00:24:20.021Z,18.83
2018-02-15T00:25:23.625Z,17.20
2018-02-15T00:26:28.292Z,17.75
2018-02-15T00:27:32.151Z,17.08
2018-02-15T00:28:35.439Z,16.48
2018-02-15T00:29:39.414Z,17.37
2018-02-15T00:30:43.433Z,16.60
2018-02-15T00:31:46.691Z,16.15
2018-02-15T00:32:49.908Z,17.55
2018-02-15T00:33:53.180Z,16.75
2018-02-15T00:34:56.443Z,17.00
2018-02-15T00:35:59.666Z,17.75
2018-02-15T00:37:02.896Z,16.02
2018-02-15T00:38:06.126Z,16.15
2018-02-15T00:39:09.377Z,16.83
2018-02-15T00:40:12.599Z,16.30
2018-02-15T00:41:15.866Z,15.15
2018-02-15T00:42:19.109Z,16.90
2018-02-15T00:43:22.338Z,16.75
2018-02-15T00:44:25.544Z,16.17
2018-02-15T00:45:28.787Z,16.45
2018-02-15T00:46:32.761Z,15.23
2018-02-15T00:47:35.988Z,13.77
2018-02-15T00:48:39.228Z,16.30
2018-02-15T00:49:42.458Z,14.70
2018-02-15T00:50:45.685Z,15.95
2018-02-15T00:51:48.916Z,16.60
2018-02-15T00:52:52.150Z,16.55
2018-02-15T00:53:55.385Z,16.62
2018-02-15T00:54:58.605Z,16.50
2018-02-15T00:56:01.858Z,15.85
2018-02-15T00:57:05.089Z,15.82
2018-02-15T00:58:08.319Z,15.80
2018-02-15T00:59:11.540Z,14.68
2018-02-15T01:00:14.770Z,16.55
2018-02-15T01:01:18.648Z,14.55
2018-02-15T01:02:22.633Z,12.77
2018-02-15T01:03:25.864Z,14.55
2018-02-15T01:04:29.868Z,15.88
2018-02-15T01:05:33.095Z,15.05
2018-02-15T01:06:37.849Z,14.60
2018-02-15T01:07:41.848Z,15.30
2018-02-15T01:08:45.844Z,14.35
2018-02-15T01:09:49.860Z,14.73
2018-02-15T01:10:53.085Z,14.30
2018-02-15T01:11:56.411Z,15.50
2018-02-15T01:12:59.699Z,14.55
2018-02-15T01:14:02.958Z,16.08
2018-02-15T01:15:06.247Z,16.50
2018-02-15T01:16:09.469Z,14.65
2018-02-15T01:17:12.686Z,13.57
2018-02-15T01:18:15.922Z,15.35
2018-02-15T01:19:19.137Z,14.30
2018-02-15T01:20:22.362Z,13.50
2018-02-15T01:21:25.575Z,15.77
2018-02-15T01:22:28.807Z,16.35
2018-02-15T01:23:32.812Z,14.40
2018-02-15T01:24:36.793Z,14.02
2018-02-15T01:25:40.020Z,13.73
2018-02-15T01:26:43.257Z,13.30
2018-02-15T01:27:46.482Z,14.40
2018-02-15T01:28:49.699Z,15.55
2018-02-15T01:29:52.921Z,14.70
2018-02-15T01:30:56.937Z,13.70
2018-02-15T01:32:00.180Z,15.40
2018-02-15T01:33:03.406Z,14.77
2018-02-15T01:34:06.624Z,14.55
2018-02-15T01:35:09.869Z,14.20
2018-02-15T01:36:13.088Z,14.27
2018-02-15T01:37:16.320Z,15.18
2018-02-15T01:38:20.324Z,14.57
2018-02-15T01:39:24.366Z,14.07
2018-02-15T01:40:27.628Z,14.60
2018-02-15T01:41:30.843Z,14.27
2018-02-15T01:42:34.088Z,14.80
2018-02-15T01:43:37.305Z,13.43
2018-02-15T01:44:40.551Z,13.50
2018-02-15T01:45:43.772Z,14.70
2018-02-15T01:46:47.009Z,13.77
2018-02-15T01:47:50.996Z,14.35
2018-02-15T01:48:54.992Z,14.85
2018-02-15T01:51:13.437Z,13.98
2018-02-15T01:52:16.774Z,14.82
2018-02-15T01:53:20.016Z,14.70
2018-02-15T01:54:24.023Z,14.73
2018-02-15T01:55:28.038Z,14.90
2018-02-15T01:56:32.047Z,14.45
2018-02-15T01:57:35.305Z,13.70
2018-02-15T01:58:39.309Z,13.85
2018-02-15T01:59:43.319Z,13.82
2018-02-15T02:00:47.272Z,12.05
2018-02-15T02:01:51.260Z,13.30
2018-02-15T02:02:54.485Z,13.98
2018-02-15T02:03:58.529Z,13.30
2018-02-15T02:05:01.756Z,14.15
2018-02-15T02:06:04.994Z,13.75
2018-02-15T02:07:08.218Z,12.85
2018-02-15T02:08:11.440Z,13.13
2018-02-15T02:09:14.676Z,12.48
2018-02-15T02:10:17.902Z,13.32
2018-02-15T02:11:21.897Z,13.80
2018-02-15T02:12:25.313Z,12.48
2018-02-15T02:13:28.529Z,12.43
2018-02-15T02:14:31.773Z,12.30
2018-02-15T02:15:34.998Z,12.40
2018-02-15T02:16:38.232Z,12.32
2018-02-15T02:17:41.464Z,12.30
2018-02-15T02:18:44.691Z,12.45
2018-02-15T02:19:47.980Z,11.25
2018-02-15T02:20:51.230Z,11.68
2018-02-15T02:21:54.489Z,12.10
2018-02-15T02:22:57.681Z,12.05
2018-02-15T02:24:00.920Z,10.80
2018-02-15T02:25:04.150Z,12.00
2018-02-15T02:26:07.387Z,12.37
2018-02-15T02:27:10.621Z,12.13
2018-02-15T02:28:13.849Z,12.07
2018-02-15T02:29:17.075Z,12.95
2018-02-15T02:30:20.302Z,11.43
2018-02-15T02:31:23.584Z,12.32
2018-02-15T02:32:26.814Z,12.00
2018-02-15T02:33:30.050Z,12.60
2018-02-15T02:34:33.277Z,11.57
2018-02-15T02:35:36.528Z,11.20
2018-02-15T02:36:39.755Z,11.68
2018-02-15T02:37:42.979Z,11.52
2018-02-15T02:38:46.314Z,12.88
2018-02-15T02:39:49.550Z,12.13
2018-02-15T02:40:52.776Z,12.82
2018-02-15T02:41:56.001Z,10.77
2018-02-15T02:42:59.993Z,10.32
2018-02-15T02:44:03.974Z,10.77
2018-02-15T02:45:07.303Z,10.38
2018-02-15T02:46:10.527Z,10.55
2018-02-15T02:47:13.764Z,11.25
2018-02-15T02:48:16.978Z,10.65
2018-02-15T02:49:20.243Z,11.93
2018-02-15T02:50:23.693Z,11.30
2018-02-15T02:51:26.908Z,10.13
2018-02-15T02:52:30.140Z,10.20
2018-02-15T02:53:33.423Z,12.07
2018-02-15T02:54:37.453Z,11.02
2018-02-15T02:55:40.752Z,10.38
2018-02-15T02:56:43.982Z,10.00
2018-02-15T02:57:47.232Z,10.02
2018-02-15T02:58:50.452Z,10.07
2018-02-15T02:59:53.684Z,10.40
2018-02-15T03:00:56.909Z,11.25
2018-02-15T03:02:00.154Z,9.48
2018-02-15T03:03:03.374Z,11.18
2018-02-15T03:04:06.627Z,9.65
2018-02-15T03:05:09.851Z,10.00
2018-02-15T03:06:13.072Z,10.50
2018-02-15T03:07:16.310Z,10.70
2018-02-15T03:08:20.382Z,9.77
2018-02-15T03:09:23.602Z,10.35
2018-02-15T03:10:26.834Z,10.45
2018-02-15T03:11:30.055Z,9.45
2018-02-15T03:12:34.041Z,9.73
2018-02-15T03:13:37.262Z,8.65
2018-02-15T03:14:40.487Z,10.10
2018-02-15T03:15:43.804Z,10.57
2018-02-15T03:16:47.114Z,8.98
2018-02-15T03:17:50.322Z,9.57
2018-02-15T03:18:53.536Z,9.10
2018-02-15T03:19:56.756Z,9.73
2018-02-15T03:20:59.985Z,9.43
2018-02-15T03:22:03.204Z,10.10
2018-02-15T03:23:07.254Z,8.85
2018-02-15T03:24:10.477Z,10.05
2018-02-15T03:25:13.712Z,9.13
2018-02-15T03:26:17.018Z,9.35
2018-02-15T03:27:20.213Z,9.48
2018-02-15T03:28:23.524Z,8.68
2018-02-15T03:29:27.511Z,9.35
2018-02-15T03:30:31.497Z,9.35
2018-02-15T03:31:34.716Z,10.20
2018-02-15T03:32:37.952Z,9.70
2018-02-15T03:33:41.160Z,9.60
2018-02-15T03:34:45.151Z,9.38
2018-02-15T03:35:48.367Z,10.02
2018-02-15T03:36:51.598Z,8.77
2018-02-15T03:37:55.182Z,10.25
2018-02-15T03:38:58.513Z,8.95
2018-02-15T03:40:02.922Z,9.30
2018-02-15T03:41:06.129Z,9.93
2018-02-15T03:42:09.356Z,8.60
2018-02-15T03:43:12.606Z,9.05
2018-02-15T03:44:15.831Z,7.95
2018-02-15T03:45:19.070Z,7.95
2018-02-15T03:46:22.300Z,8.27
2018-02-15T03:47:26.283Z,7.80
2018-02-15T03:48:29.511Z,8.23
2018-02-15T03:49:33.492Z,8.80
2018-02-15T03:50:37.510Z,8.20
2018-02-15T03:51:40.728Z,8.57
2018-02-15T03:52:43.953Z,8.05
2018-02-15T03:53:47.213Z,8.30
2018-02-15T03:54:50.444Z,7.82
2018-02-15T03:55:53.625Z,8.93
2018-02-15T03:56:56.873Z,8.00
2018-02-15T03:58:00.060Z,8.13
2018-02-15T03:59:03.279Z,7.57
2018-02-15T04:00:06.489Z,8.45
2018-02-15T04:01:09.718Z,7.95
2018-02-15T04:02:12.925Z,7.55
2018-02-15T04:03:16.134Z,7.32
2018-02-15T04:04:19.419Z,7.72
2018-02-15T04:05:22.644Z,7.47
2018-02-15T04:06:26.722Z,7.32
2018-02-15T04:07:29.928Z,8.23
2018-02-15T04:08:33.142Z,7.32
2018-02-15T04:09:36.356Z,7.32
2018-02-15T04:10:39.583Z,7.47
2018-02-15T04:11:42.845Z,7.65
2018-02-15T04:12:46.058Z,7.43
2018-02-15T04:13:49.275Z,7.70
2018-02-15T04:14:52.601Z,6.97
2018-02-15T04:15:55.858Z,7.95
2018-02-15T04:16:59.836Z,7.55
2018-02-15T04:18:03.822Z,6.85
2018-02-15T04:19:07.061Z,6.85
2018-02-15T04:20:10.289Z,6.80
2018-02-15T04:21:13.502Z,6.45
2018-02-15T04:22:16.718Z,6.75
2018-02-15T04:23:20.709Z,6.62
2018-02-15T04:24:23.975Z,6.70
2018-02-15T04:25:27.166Z,6.35
2018-02-15T04:26:30.389Z,5.40
2018-02-15T04:27:34.361Z,6.70
2018-02-15T04:28:38.407Z,6.00
2018-02-15T04:29:41.664Z,6.15
2018-02-15T04:30:45.663Z,6.47
2018-02-15T04:31:49.643Z,7.43
2018-02-15T04:32:52.865Z,5.68
2018-02-15T04:33:56.068Z,6.60
2018-02-15T04:34:59.305Z,5.70
2018-02-15T04:36:03.290Z,6.18
2018-02-15T04:37:07.276Z,5.40
2018-02-15T04:38:10.522Z,5.60
2018-02-15T04:39:13.753Z,5.20
2018-02-15T04:40:16.975Z,7.05
2018-02-15T04:41:20.188Z,6.20
2018-02-15T04:42:23.418Z,6.62
2018-02-15T04:43:27.398Z,6.10
2018-02-15T04:44:30.604Z,6.20
2018-02-15T04:45:33.812Z,7.25
2018-02-15T04:46:37.090Z,6.60
2018-02-15T04:47:40.293Z,6.47
2018-02-15T04:48:43.504Z,7.57
2018-02-15T04:49:46.728Z,9.02
2018-02-15T04:50:49.953Z,8.18
2018-02-15T04:51:53.180Z,7.45
2018-02-15T04:52:57.164Z,7.70
2018-02-15T04:54:01.199Z,8.25
2018-02-15T04:55:04.429Z,7.78
2018-02-15T04:56:07.648Z,8.25
2018-02-15T04:57:10.870Z,7.50
2018-02-15T04:58:14.115Z,7.35
2018-02-15T04:59:18.087Z,6.72
2018-02-15T05:00:21.472Z,7.82
2018-02-15T05:01:24.704Z,7.12
2018-02-15T05:02:28.015Z,7.60
2018-02-15T05:03:31.225Z,7.62
2018-02-15T05:04:34.471Z,7.43
2018-02-15T05:05:37.673Z,8.50
2018-02-15T05:06:40.899Z,7.32
2018-02-15T05:07:44.893Z,7.07
2018-02-15T05:08:48.872Z,7.40
2018-02-15T05:09:52.112Z,7.72
2018-02-15T05:10:55.357Z,8.02
2018-02-15T05:11:59.353Z,7.90
2018-02-15T05:13:03.400Z,7.57
2018-02-15T05:14:06.638Z,7.10
2018-02-15T05:15:10.633Z,8.48
2018-02-15T05:16:14.612Z,7.15
2018-02-15T05:17:18.000Z,7.10
2018-02-15T05:18:21.231Z,7.25
2018-02-15T05:19:24.437Z,6.15
2018-02-15T05:20:27.668Z,6.20
2018-02-15T05:21:31.640Z,6.05
2018-02-15T05:22:34.878Z,7.12
2018-02-15T05:23:38.104Z,6.43
2018-02-15T05:24:41.388Z,5.47
2018-02-15T05:25:44.567Z,5.57
2018-02-15T05:26:47.800Z,6.25
2018-02-15T05:27:51.776Z,5.95
2018-02-15T05:28:55.770Z,5.97
2018-02-15T05:29:58.969Z,6.03
2018-02-15T05:31:02.963Z,5.62
2018-02-15T05:32:06.187Z,5.53
2018-02-15T05:33:09.466Z,5.85
2018-02-15T05:34:12.680Z,6.07
2018-02-15T05:35:15.893Z,6.03
2018-02-15T05:36:19.882Z,4.70
2018-02-15T05:37:23.146Z,5.75
2018-02-15T05:38:26.432Z,5.80
2018-02-15T05:39:29.620Z,5.53
2018-02-15T05:40:34.026Z,5.00
2018-02-15T05:41:37.282Z,5.85
2018-02-15T05:42:40.524Z,6.10
2018-02-15T05:43:44.546Z,5.68
2018-02-15T05:44:47.822Z,5.72
2018-02-15T05:45:51.798Z,5.70
2018-02-15T05:46:55.097Z,5.07
2018-02-15T05:47:59.135Z,5.25
2018-02-15T05:49:02.368Z,4.90
2018-02-15T05:50:05.705Z,5.10
2018-02-15T05:51:08.971Z,5.25
2018-02-15T05:52:12.218Z,5.28
2018-02-15T05:53:16.381Z,6.00
2018-02-15T05:54:19.710Z,5.00
2018-02-15T05:55:22.964Z,6.15
2018-02-15T05:56:26.261Z,5.62
2018-02-15T05:57:29.544Z,5.85
2018-02-15T05:58:33.148Z,5.20
2018-02-15T05:59:36.397Z,5.62
2018-02-15T06:00:39.624Z,5.30
2018-02-15T06:01:43.614Z,5.85
2018-02-15T06:02:46.853Z,5.70
2018-02-15T06:03:50.073Z,4.78
2018-02-15T06:04:53.332Z,5.65
2018-02-15T06:05:56.602Z,5.00
2018-02-15T06:06:59.853Z,7.85
2018-02-15T06:08:03.976Z,4.82
2018-02-15T06:09:07.188Z,5.50
2018-02-15T06:10:10.563Z,5.10
2018-02-15T06:11:13.839Z,5.80
2018-02-15T06:12:17.121Z,6.40
2018-02-15T06:13:20.384Z,5.00
2018-02-15T06:15:33.178Z,4.95
2018-02-15T06:16:37.182Z,4.70
2018-02-15T06:17:40.381Z,4.97
2018-02-15T06:18:43.621Z,4.70
2018-02-15T06:19:46.855Z,4.72
2018-02-15T06:20:50.097Z,5.03
2018-02-15T06:21:53.309Z,4.57
2018-02-15T06:22:56.528Z,4.93
2018-02-15T06:23:59.743Z,4.70
2018-02-15T06:25:02.975Z,4.87
2018-02-15T06:26:06.192Z,5.03
2018-02-15T06:27:09.421Z,4.90
2018-02-15T06:28:13.420Z,5.07
2018-02-15T06:29:17.401Z,5.80
2018-02-15T06:30:20.620Z,5.07
2018-02-15T06:31:23.841Z,5.32
2018-02-15T06:32:27.046Z,5.37
2018-02-15T06:33:30.261Z,4.47
2018-02-15T06:34:33.590Z,4.37
2018-02-15T06:35:36.829Z,4.80
2018-02-15T06:36:40.087Z,5.20
2018-02-15T06:37:43.306Z,4.68
2018-02-15T06:38:47.393Z,7.05
2018-02-15T06:39:50.661Z,5.55
2018-02-15T06:40:54.669Z,4.80
2018-02-15T06:41:58.683Z,5.85
2018-02-15T06:43:02.669Z,4.75
2018-02-15T06:44:06.679Z,5.20
2018-02-15T06:45:10.659Z,4.80
2018-02-15T06:46:14.629Z,5.28
2018-02-15T06:47:17.868Z,5.78
2018-02-15T06:48:21.100Z,4.87
2018-02-15T06:49:24.337Z,6.75
2018-02-15T06:50:27.590Z,4.35
2018-02-15T06:51:30.794Z,5.22
2018-02-15T06:52:34.069Z,4.97
2018-02-15T06:53:38.053Z,4.62
2018-02-15T06:54:42.061Z,4.75
2018-02-15T06:55:45.332Z,4.60
2018-02-15T06:56:48.531Z,4.75
2018-02-15T06:57:52.571Z,4.80
2018-02-15T06:58:55.792Z,5.22
2018-02-15T06:59:59.786Z,5.12
2018-02-15T07:01:03.073Z,5.18
2018-02-15T07:02:06.272Z,4.50
2018-02-15T07:03:10.304Z,4.95
2018-02-15T07:04:13.539Z,5.40
2018-02-15T07:05:16.745Z,4.40
2018-02-15T07:06:20.752Z,4.62
2018-02-15T07:07:23.986Z,5.00
2018-02-15T07:08:27.211Z,4.85
2018-02-15T07:09:30.439Z,4.32
2018-02-15T07:10:33.652Z,4.30
2018-02-15T07:11:36.882Z,5.25
2018-02-15T07:12:40.105Z,5.55
2018-02-15T07:13:44.110Z,4.93
2018-02-15T07:14:47.346Z,4.40
2018-02-15T07:15:50.582Z,5.15
2018-02-15T07:16:53.787Z,4.37
2018-02-15T07:17:57.777Z,4.55
2018-02-15T07:19:01.768Z,4.22
2018-02-15T07:20:05.776Z,3.85
2018-02-15T07:21:09.904Z,4.30
2018-02-15T07:22:13.157Z,4.47
2018-02-15T07:23:16.363Z,4.07
2018-02-15T07:24:19.644Z,4.62
2018-02-15T07:25:23.625Z,4.30
2018-02-15T07:26:27.619Z,5.40
2018-02-15T07:27:30.836Z,3.97
2018-02-15T07:28:34.071Z,4.22
2018-02-15T07:29:37.289Z,5.53
2018-02-15T07:30:41.296Z,4.53
2018-02-15T07:31:45.282Z,4.65
2018-02-15T07:32:49.274Z,4.40
2018-02-15T07:33:53.261Z,4.00
2018-02-15T07:34:56.480Z,5.05
2018-02-15T07:35:59.698Z,4.30
2018-02-15T07:37:02.927Z,4.00
2018-02-15T07:38:06.901Z,4.55
2018-02-15T07:39:10.239Z,4.07
2018-02-15T07:40:13.457Z,5.10
2018-02-15T07:41:17.090Z,4.68
2018-02-15T07:42:20.289Z,4.07
2018-02-15T07:43:23.524Z,4.50
2018-02-15T07:44:26.808Z,4.78
2018-02-15T07:45:30.022Z,5.18
2018-02-15T07:46:34.009Z,4.60
2018-02-15T07:47:37.264Z,4.00
2018-02-15T07:48:40.582Z,4.80
2018-02-15T07:49:44.585Z,4.53
2018-02-15T07:50:47.809Z,4.40
2018-02-15T07:51:51.032Z,4.25
2018-02-15T07:52:54.320Z,4.70
2018-02-15T07:53:59.101Z,6.15
2018-02-15T07:55:02.403Z,4.35
2018-02-15T07:56:05.648Z,4.95
2018-02-15T07:57:08.874Z,4.90
2018-02-15T07:58:12.109Z,3.90
2018-02-15T07:59:15.342Z,4.70
2018-02-15T08:00:18.589Z,4.60
2018-02-15T08:01:21.874Z,3.97
2018-02-15T08:02:25.989Z,4.05
2018-02-15T08:03:29.246Z,3.53
2018-02-15T08:04:32.430Z,3.80
2018-02-15T08:05:35.685Z,3.78
2018-02-15T08:06:38.923Z,4.10
2018-02-15T08:07:42.144Z,4.62
2018-02-15T08:08:45.387Z,4.12
2018-02-15T08:09:48.624Z,4.37
2018-02-15T08:10:52.621Z,3.92
2018-02-15T08:11:56.636Z,4.70
2018-02-15T08:13:00.654Z,4.40
2018-02-15T08:14:03.867Z,4.20
2018-02-15T08:15:07.109Z,4.30
2018-02-15T08:16:10.336Z,4.25
2018-02-15T08:17:13.551Z,4.12
2018-02-15T08:18:16.779Z,4.40
2018-02-15T08:19:20.049Z,5.10
2018-02-15T08:20:23.303Z,4.32
2018-02-15T08:21:26.545Z,4.45
2018-02-15T08:22:29.761Z,5.10
2018-02-15T08:23:32.976Z,5.43
2018-02-15T08:24:36.219Z,4.68
2018-02-15T08:25:40.224Z,5.97
2018-02-15T08:26:44.197Z,6.12
2018-02-15T08:27:47.520Z,5.45
2018-02-15T08:28:50.736Z,5.57
2018-02-15T08:29:54.117Z,5.22
2018-02-15T08:30:57.359Z,5.12
2018-02-15T08:32:01.391Z,6.15
2018-02-15T08:33:05.410Z,5.07
2018-02-15T08:34:08.643Z,6.30
2018-02-15T08:35:12.665Z,5.80
2018-02-15T08:36:15.888Z,4.30
2018-02-15T08:37:19.178Z,4.57
2018-02-15T08:38:22.383Z,4.40
2018-02-15T08:39:25.603Z,5.00
2018-02-15T08:40:28.880Z,4.37
2018-02-15T08:41:32.098Z,4.32
2018-02-15T08:42:35.389Z,4.22
2018-02-15T08:43:38.614Z,5.05
2018-02-15T08:44:42.605Z,5.35
2018-02-15T08:45:45.809Z,4.82
2018-02-15T08:46:49.801Z,4.00
2018-02-15T08:47:53.800Z,4.82
2018-02-15T08:48:57.802Z,4.87
2018-02-15T08:50:02.062Z,3.75
2018-02-15T08:51:05.377Z,4.40
2018-02-15T08:52:08.606Z,4.10
2018-02-15T08:53:11.840Z,4.65
2018-02-15T08:54:15.065Z,3.70
2018-02-15T08:55:18.342Z,3.83
2018-02-15T08:56:21.591Z,3.35
2018-02-15T08:57:24.834Z,3.55
2018-02-15T08:58:28.082Z,4.55
2018-02-15T08:59:32.073Z,5.55
2018-02-15T09:00:36.081Z,5.50
2018-02-15T09:01:40.046Z,4.78
2018-02-15T09:02:43.257Z,4.30
2018-02-15T09:03:47.373Z,4.00
2018-02-15T09:04:51.356Z,3.65
2018-02-15T09:05:55.356Z,4.97
2018-02-15T09:06:59.357Z,4.35
2018-02-15T09:08:03.366Z,3.90
2018-02-15T09:09:07.357Z,4.60
2018-02-15T09:10:11.354Z,4.07
2018-02-15T09:11:14.584Z,4.90
2018-02-15T09:12:17.864Z,4.62
2018-02-15T09:13:21.039Z,4.40
2018-02-15T09:14:24.312Z,4.90
2018-02-15T09:15:27.517Z,3.60
2018-02-15T09:16:30.740Z,5.40
2018-02-15T09:17:33.966Z,4.22
2018-02-15T09:18:37.195Z,4.03
2018-02-15T09:19:40.401Z,4.37
2018-02-15T09:20:44.377Z,4.20
2018-02-15T09:21:47.622Z,4.60
2018-02-15T09:22:50.826Z,5.65
2018-02-15T09:23:54.071Z,3.75
2018-02-15T09:24:58.073Z,4.25
2018-02-15T09:26:02.066Z,4.85
2018-02-15T09:27:06.210Z,4.20
2018-02-15T09:28:10.154Z,4.28
2018-02-15T09:29:13.395Z,5.30
2018-02-15T09:30:16.656Z,4.50
2018-02-15T09:31:19.857Z,3.67
2018-02-15T09:32:23.083Z,4.68
2018-02-15T09:33:27.065Z,4.87
2018-02-15T09:34:30.304Z,5.85
2018-02-15T09:35:33.602Z,4.87
2018-02-15T09:36:36.868Z,4.60
2018-02-15T09:37:40.104Z,4.25
2018-02-15T09:38:43.334Z,4.85
2018-02-15T09:39:46.601Z,4.05
2018-02-15T09:40:50.596Z,4.53
2018-02-15T09:41:53.812Z,4.68
2018-02-15T09:42:57.230Z,4.70
2018-02-15T09:44:00.479Z,4.55
2018-02-15T09:45:03.704Z,4.25
2018-02-15T09:46:06.930Z,3.85
2018-02-15T09:47:10.201Z,4.25
2018-02-15T09:48:14.216Z,4.85
2018-02-15T09:49:17.621Z,4.97
2018-02-15T09:50:20.850Z,4.53
2018-02-15T09:51:24.074Z,4.62
2018-02-15T09:52:27.306Z,4.80
2018-02-15T09:53:30.517Z,4.82
2018-02-15T09:54:34.508Z,4.60
2018-02-15T09:55:38.509Z,4.20
2018-02-15T09:56:42.494Z,3.97
2018-02-15T09:57:45.704Z,4.30
2018-02-15T09:58:48.947Z,4.97
2018-02-15T09:59:52.181Z,3.50
2018-02-15T10:00:55.405Z,4.40
2018-02-15T10:01:58.622Z,4.15
2018-02-15T10:03:02.597Z,5.22
2018-02-15T10:04:05.839Z,5.30
2018-02-15T10:05:09.122Z,4.15
2018-02-15T10:06:12.348Z,4.80
2018-02-15T10:07:15.665Z,4.45
2018-02-15T10:08:19.690Z,5.18
2018-02-15T10:09:23.640Z,5.03
2018-02-15T10:10:27.730Z,4.87
2018-02-15T10:11:30.922Z,5.20
2018-02-15T10:12:34.139Z,5.28
2018-02-15T10:13:38.137Z,4.35
2018-02-15T10:14:42.108Z,5.05
2018-02-15T10:15:45.331Z,4.95
2018-02-15T10:16:48.570Z,4.87
2018-02-15T10:17:51.909Z,4.05
2018-02-15T10:18:55.142Z,4.50
2018-02-15T10:19:58.357Z,4.30
2018-02-15T10:21:01.580Z,4.55
2018-02-15T10:22:04.820Z,4.62
2018-02-15T10:23:08.805Z,6.07
2018-02-15T10:24:12.795Z,4.70
2018-02-15T10:25:16.025Z,5.05
2018-02-15T10:26:19.270Z,5.95
2018-02-15T10:27:23.258Z,5.10
2018-02-15T10:28:26.479Z,4.18
2018-02-15T10:29:29.735Z,4.72
2018-02-15T10:30:33.748Z,5.35
2018-02-15T10:31:36.997Z,4.62
2018-02-15T10:32:40.213Z,4.78
2018-02-15T10:33:44.200Z,5.03
2018-02-15T10:34:48.206Z,6.00
2018-02-15T10:35:52.205Z,4.43
2018-02-15T10:36:55.419Z,3.92
2018-02-15T10:37:58.640Z,4.72
2018-02-15T10:39:01.890Z,4.90
2018-02-15T10:40:05.137Z,5.05
2018-02-15T10:41:09.153Z,3.90
2018-02-15T10:42:12.346Z,3.53
2018-02-15T10:43:15.547Z,3.90
2018-02-15T10:44:18.807Z,3.47
2018-02-15T10:45:22.801Z,3.45
2018-02-15T10:46:26.084Z,3.33
2018-02-15T10:47:29.311Z,4.28
2018-02-15T10:48:32.530Z,5.35
2018-02-15T10:49:35.752Z,3.97
2018-02-15T10:50:38.994Z,3.47
2018-02-15T10:51:42.994Z,4.20
2018-02-15T10:52:46.221Z,4.40
2018-02-15T10:53:49.437Z,3.60
2018-02-15T10:54:52.709Z,4.30
2018-02-15T10:55:55.915Z,4.12
2018-02-15T10:56:59.124Z,4.70
2018-02-15T10:58:02.428Z,5.07
2018-02-15T10:59:05.645Z,4.30
2018-02-15T11:00:08.903Z,3.90
2018-02-15T11:01:17.934Z,3.92
2018-02-15T11:02:21.779Z,4.30
2018-02-15T11:03:30.641Z,4.20
2018-02-15T11:04:33.872Z,4.87
2018-02-15T11:05:40.072Z,4.30
2018-02-15T11:06:43.284Z,3.95
2018-02-15T11:07:46.509Z,4.87
2018-02-15T11:08:49.730Z,4.15
2018-02-15T11:09:52.958Z,5.35
2018-02-15T11:10:56.953Z,5.43
2018-02-15T11:12:00.970Z,4.95
2018-02-15T11:13:04.226Z,5.45
2018-02-15T11:14:07.452Z,4.78
2018-02-15T11:15:10.691Z,5.07
2018-02-15T11:16:13.917Z,5.50
2018-02-15T11:17:17.157Z,5.10
2018-02-15T11:18:20.386Z,5.45
2018-02-15T11:19:23.717Z,4.80
2018-02-15T11:20:26.951Z,5.43
2018-02-15T11:21:30.200Z,4.15
2018-02-15T11:22:33.429Z,4.30
2018-02-15T11:23:36.645Z,4.62
2018-02-15T11:24:40.696Z,4.70
2018-02-15T11:25:43.924Z,4.68
2018-02-15T11:26:47.958Z,4.82
2018-02-15T11:27:51.179Z,4.78
2018-02-15T11:28:54.424Z,5.40
2018-02-15T11:29:57.640Z,4.80
2018-02-15T11:31:00.881Z,4.80
2018-02-15T11:32:04.101Z,5.28
2018-02-15T11:33:07.363Z,4.50
2018-02-15T11:34:10.596Z,4.25
2018-02-15T11:35:13.825Z,5.03
2018-02-15T11:36:17.066Z,5.30
2018-02-15T11:37:21.052Z,4.43
2018-02-15T11:38:24.369Z,4.72
2018-02-15T11:39:27.632Z,4.85
2018-02-15T11:40:30.850Z,4.40
2018-02-15T11:41:34.088Z,5.15
2018-02-15T11:42:38.090Z,4.95
2018-02-15T11:43:41.324Z,5.97
2018-02-15T11:44:44.558Z,5.50
2018-02-15T11:45:48.538Z,5.40
2018-02-15T11:46:52.541Z,4.95
2018-02-15T11:47:55.767Z,4.65
2018-02-15T11:48:59.026Z,5.20
2018-02-15T11:50:02.240Z,6.18
2018-02-15T11:51:05.490Z,4.53
2018-02-15T11:52:09.467Z,4.62
2018-02-15T11:53:12.716Z,5.57
2018-02-15T11:54:15.934Z,5.45
2018-02-15T11:55:19.913Z,5.97
2018-02-15T11:56:23.140Z,5.60
2018-02-15T11:57:26.358Z,6.43
2018-02-15T11:58:29.625Z,6.40
2018-02-15T11:59:32.909Z,5.00
2018-02-15T12:00:36.130Z,5.12
2018-02-15T12:01:39.465Z,5.55
2018-02-15T12:02:42.685Z,4.82
2018-02-15T12:03:45.931Z,4.82
2018-02-15T12:04:49.157Z,5.32
2018-02-15T12:05:52.393Z,5.10
2018-02-15T12:06:55.627Z,4.62
2018-02-15T12:07:58.860Z,5.47
2018-02-15T12:09:02.124Z,4.00
2018-02-15T12:10:06.854Z,4.40
2018-02-15T12:11:10.853Z,4.93
2018-02-15T12:12:14.866Z,6.37
2018-02-15T12:13:18.860Z,6.32
2018-02-15T12:14:22.854Z,5.60
2018-02-15T12:15:26.058Z,5.18
2018-02-15T12:16:29.287Z,4.22
2018-02-15T12:17:32.518Z,5.00
2018-02-15T12:18:35.759Z,4.43
2018-02-15T12:19:38.992Z,5.43
2018-02-15T12:20:42.218Z,4.68
2018-02-15T12:21:45.441Z,4.97
2018-02-15T12:22:49.436Z,4.47
2018-02-15T12:23:53.453Z,5.87
2018-02-15T12:24:56.673Z,4.90
2018-02-15T12:25:59.988Z,5.50
2018-02-15T12:27:04.009Z,5.28
2018-02-15T12:28:07.991Z,4.50
2018-02-15T12:29:11.208Z,5.40
2018-02-15T12:30:14.437Z,5.03
2018-02-15T12:31:18.115Z,4.43
2018-02-15T12:32:22.267Z,4.93
2018-02-15T12:33:25.466Z,4.57
2018-02-15T12:34:28.721Z,4.53
2018-02-15T12:35:32.715Z,4.85
2018-02-15T12:36:35.958Z,4.80
2018-02-15T12:37:39.208Z,4.85
2018-02-15T12:38:42.443Z,4.80
2018-02-15T12:39:45.685Z,4.70
2018-02-15T12:40:48.944Z,4.78
2018-02-15T12:41:52.938Z,4.62
2018-02-15T12:42:57.020Z,5.03
2018-02-15T12:44:00.245Z,4.80
2018-02-15T12:45:04.276Z,4.90
2018-02-15T12:46:07.534Z,5.60
2018-02-15T12:47:11.063Z,5.30
2018-02-15T12:48:14.447Z,5.20
2018-02-15T12:49:17.796Z,5.90
2018-02-15T12:50:21.123Z,5.45
2018-02-15T12:51:24.377Z,5.05
2018-02-15T12:52:27.616Z,5.53
2018-02-15T12:53:31.608Z,4.82
2018-02-15T12:54:34.883Z,3.60
2018-02-15T12:55:38.155Z,4.80
2018-02-15T12:56:41.366Z,4.45
2018-02-15T12:57:44.635Z,4.60
2018-02-15T12:58:47.917Z,5.25
2018-02-15T12:59:51.186Z,4.85
2018-02-15T13:00:54.448Z,4.87
2018-02-15T13:01:57.680Z,4.57
2018-02-15T13:03:00.946Z,6.37
2018-02-15T13:04:04.215Z,5.90
2018-02-15T13:05:07.470Z,6.22
2018-02-15T13:06:10.764Z,4.70
2018-02-15T13:07:14.053Z,6.20
2018-02-15T13:08:17.307Z,5.80
2018-02-15T13:09:20.536Z,4.93
2018-02-15T13:10:23.771Z,5.90
2018-02-15T13:11:27.010Z,5.35
2018-02-15T13:12:42.034Z,5.55
2018-02-15T13:13:45.311Z,6.37
2018-02-15T13:14:48.595Z,5.40
2018-02-15T13:16:03.670Z,5.32
2018-02-15T13:17:06.907Z,5.28
2018-02-15T13:18:10.159Z,5.72
2018-02-15T13:19:25.456Z,5.47
2018-02-15T13:20:28.692Z,4.85
2018-02-15T13:21:32.697Z,4.62
2018-02-15T13:22:47.824Z,4.90
2018-02-15T13:23:51.039Z,5.20
2018-02-15T13:24:55.080Z,6.10
2018-02-15T13:25:58.335Z,4.80
2018-02-15T13:27:01.644Z,5.18
2018-02-15T13:28:16.652Z,4.55
2018-02-15T13:29:19.993Z,5.78
2018-02-15T13:30:23.216Z,5.03
2018-02-15T13:31:26.446Z,4.35
2018-02-15T13:32:29.672Z,5.10
2018-02-15T13:33:32.894Z,5.65
2018-02-15T13:34:36.141Z,5.00
2018-02-15T13:35:39.352Z,4.75
2018-02-15T13:36:43.339Z,5.03
2018-02-15T13:37:47.341Z,3.95
2018-02-15T13:38:51.348Z,4.10
2018-02-15T13:39:55.340Z,4.78
2018-02-15T13:40:59.350Z,4.10
2018-02-15T13:42:02.563Z,3.92
2018-02-15T13:43:05.780Z,4.40
2018-02-15T13:44:09.000Z,3.70
2018-02-15T13:45:13.085Z,3.30
2018-02-15T13:46:16.279Z,3.70
2018-02-15T13:47:20.272Z,3.72
2018-02-15T13:48:24.287Z,3.60
2018-02-15T13:49:28.267Z,3.62
2018-02-15T13:50:31.485Z,2.30
2018-02-15T13:51:34.714Z,2.80
2018-02-15T13:52:37.932Z,3.05
2018-02-15T13:53:41.935Z,3.70
2018-02-15T13:54:45.177Z,3.62
2018-02-15T13:55:48.398Z,4.72
2018-02-15T13:56:52.378Z,4.68
2018-02-15T13:57:56.379Z,4.32
2018-02-15T13:58:59.610Z,3.58
2018-02-15T14:00:02.834Z,3.00
2018-02-15T14:01:06.070Z,3.67
2018-02-15T14:02:09.289Z,2.65